sensor_id;sensor_type;location;lat;lon;timestamp;P1;durP1;ratioP1;P2;durP2;ratioP2
20084;SDS011;10202;48.474;9.138;2022-11-15T00:00:56;8.82;;;5.47;;
20084;SDS011;10202;48.474;9.138;2022-11-15T00:03:42;9.40;;;4.97;;
20084;SDS011;10202;48.474;9.138;2022-11-15T00:06:28;9.88;;;5.15;;
20084;SDS011;10202;48.474;9.138;2022-11-15T00:09:13;10.50;;;4.97;;
20084;SDS011;10202;48.474;9.138;2022-11-15T00:11:57;13.35;;;4.78;;
20084;SDS011;10202;48.474;9.138;2022-11-15T00:14:41;6.38;;;4.13;;
20084;SDS011;10202;48.474;9.138;2022-11-15T00:17:27;11.85;;;3.65;;
20084;SDS011;10202;48.474;9.138;2022-11-15T00:20:14;4.88;;;3.38;;
20084;SDS011;10202;48.474;9.138;2022-11-15T00:23:01;4.93;;;3.38;;
20084;SDS011;10202;48.474;9.138;2022-11-15T00:25:47;4.75;;;3.20;;
20084;SDS011;10202;48.474;9.138;2022-11-15T00:28:31;7.32;;;3.65;;
20084;SDS011;10202;48.474;9.138;2022-11-15T00:31:15;10.25;;;4.57;;
20084;SDS011;10202;48.474;9.138;2022-11-15T00:34:01;8.65;;;4.30;;
20084;SDS011;10202;48.474;9.138;2022-11-15T00:36:48;9.07;;;4.63;;
20084;SDS011;10202;48.474;9.138;2022-11-15T00:39:32;9.20;;;4.45;;
20084;SDS011;10202;48.474;9.138;2022-11-15T00:42:16;8.15;;;3.72;;
20084;SDS011;10202;48.474;9.138;2022-11-15T00:45:00;3.95;;;3.00;;
20084;SDS011;10202;48.474;9.138;2022-11-15T00:47:44;4.90;;;3.13;;
20084;SDS011;10202;48.474;9.138;2022-11-15T00:50:31;7.75;;;3.28;;
20084;SDS011;10202;48.474;9.138;2022-11-15T00:53:18;7.35;;;2.70;;
20084;SDS011;10202;48.474;9.138;2022-11-15T00:56:02;5.38;;;2.70;;
20084;SDS011;10202;48.474;9.138;2022-11-15T00:58:49;3.70;;;2.63;;
20084;SDS011;10202;48.474;9.138;2022-11-15T01:01:35;5.53;;;3.13;;
20084;SDS011;10202;48.474;9.138;2022-11-15T01:04:19;7.15;;;2.65;;
20084;SDS011;10202;48.474;9.138;2022-11-15T01:07:06;4.70;;;2.78;;
20084;SDS011;10202;48.474;9.138;2022-11-15T01:09:57;4.90;;;2.58;;
20084;SDS011;10202;48.474;9.138;2022-11-15T01:12:44;4.65;;;2.72;;
20084;SDS011;10202;48.474;9.138;2022-11-15T01:15:28;4.88;;;2.70;;
20084;SDS011;10202;48.474;9.138;2022-11-15T01:18:14;4.28;;;2.75;;
20084;SDS011;10202;48.474;9.138;2022-11-15T01:20:58;13.25;;;5.47;;
20084;SDS011;10202;48.474;9.138;2022-11-15T01:23:47;16.70;;;5.53;;
20084;SDS011;10202;48.474;9.138;2022-11-15T01:26:31;15.35;;;5.03;;
20084;SDS011;10202;48.474;9.138;2022-11-15T01:29:15;8.82;;;4.43;;
20084;SDS011;10202;48.474;9.138;2022-11-15T01:31:59;6.80;;;4.00;;
20084;SDS011;10202;48.474;9.138;2022-11-15T01:34:43;8.43;;;3.97;;
20084;SDS011;10202;48.474;9.138;2022-11-15T01:37:27;11.18;;;3.22;;
20084;SDS011;10202;48.474;9.138;2022-11-15T01:40:11;8.43;;;3.28;;
20084;SDS011;10202;48.474;9.138;2022-11-15T01:42:55;9.00;;;3.92;;
20084;SDS011;10202;48.474;9.138;2022-11-15T01:45:41;6.03;;;3.38;;
20084;SDS011;10202;48.474;9.138;2022-11-15T01:48:26;6.03;;;3.10;;
20084;SDS011;10202;48.474;9.138;2022-11-15T01:51:20;5.57;;;3.30;;
20084;SDS011;10202;48.474;9.138;2022-11-15T01:54:08;7.07;;;3.35;;
20084;SDS011;10202;48.474;9.138;2022-11-15T01:57:01;5.15;;;3.28;;
20084;SDS011;10202;48.474;9.138;2022-11-15T01:59:49;6.43;;;2.88;;
20084;SDS011;10202;48.474;9.138;2022-11-15T02:02:36;8.20;;;3.40;;
20084;SDS011;10202;48.474;9.138;2022-11-15T02:05:23;4.22;;;2.65;;
20084;SDS011;10202;48.474;9.138;2022-11-15T02:08:10;5.07;;;2.28;;
20084;SDS011;10202;48.474;9.138;2022-11-15T02:11:04;3.88;;;2.58;;
20084;SDS011;10202;48.474;9.138;2022-11-15T02:13:51;4.30;;;2.60;;
20084;SDS011;10202;48.474;9.138;2022-11-15T02:16:42;5.85;;;2.80;;
20084;SDS011;10202;48.474;9.138;2022-11-15T02:25:35;5.32;;;2.92;;
20084;SDS011;10202;48.474;9.138;2022-11-15T02:28:28;4.30;;;2.85;;
20084;SDS011;10202;48.474;9.138;2022-11-15T02:34:45;4.10;;;2.78;;
20084;SDS011;10202;48.474;9.138;2022-11-15T02:41:17;6.35;;;3.22;;
20084;SDS011;10202;48.474;9.138;2022-11-15T02:44:09;7.63;;;3.08;;
20084;SDS011;10202;48.474;9.138;2022-11-15T02:47:08;5.18;;;2.45;;
20084;SDS011;10202;48.474;9.138;2022-11-15T02:50:00;4.47;;;2.75;;
20084;SDS011;10202;48.474;9.138;2022-11-15T02:52:48;4.90;;;2.70;;
20084;SDS011;10202;48.474;9.138;2022-11-15T03:08:16;6.07;;;2.88;;
20084;SDS011;10202;48.474;9.138;2022-11-15T03:22:29;6.45;;;3.10;;
20084;SDS011;10202;48.474;9.138;2022-11-15T03:25:18;7.38;;;3.67;;
20084;SDS011;10202;48.474;9.138;2022-11-15T03:28:05;8.52;;;3.72;;
20084;SDS011;10202;48.474;9.138;2022-11-15T03:30:50;7.85;;;4.88;;
20084;SDS011;10202;48.474;9.138;2022-11-15T03:33:36;11.20;;;5.50;;
20084;SDS011;10202;48.474;9.138;2022-11-15T03:36:23;12.00;;;5.28;;
20084;SDS011;10202;48.474;9.138;2022-11-15T03:39:09;11.25;;;4.38;;
20084;SDS011;10202;48.474;9.138;2022-11-15T03:42:12;10.68;;;4.25;;
20084;SDS011;10202;48.474;9.138;2022-11-15T03:48:24;6.43;;;3.83;;
20084;SDS011;10202;48.474;9.138;2022-11-15T03:51:13;5.93;;;3.63;;
20084;SDS011;10202;48.474;9.138;2022-11-15T03:53:57;6.18;;;4.18;;
20084;SDS011;10202;48.474;9.138;2022-11-15T03:56:41;6.15;;;4.18;;
20084;SDS011;10202;48.474;9.138;2022-11-15T03:59:27;5.00;;;4.07;;
20084;SDS011;10202;48.474;9.138;2022-11-15T04:02:11;6.18;;;3.97;;
20084;SDS011;10202;48.474;9.138;2022-11-15T04:04:56;5.07;;;4.00;;
20084;SDS011;10202;48.474;9.138;2022-11-15T04:07:43;8.07;;;3.38;;
20084;SDS011;10202;48.474;9.138;2022-11-15T04:10:27;6.00;;;3.70;;
20084;SDS011;10202;48.474;9.138;2022-11-15T04:13:11;5.90;;;3.35;;
20084;SDS011;10202;48.474;9.138;2022-11-15T04:15:55;4.78;;;3.35;;
20084;SDS011;10202;48.474;9.138;2022-11-15T04:18:38;6.68;;;3.42;;
20084;SDS011;10202;48.474;9.138;2022-11-15T04:21:22;4.90;;;3.22;;
20084;SDS011;10202;48.474;9.138;2022-11-15T04:24:28;4.00;;;2.92;;
20084;SDS011;10202;48.474;9.138;2022-11-15T04:27:14;4.97;;;3.33;;
20084;SDS011;10202;48.474;9.138;2022-11-15T04:30:03;7.80;;;3.03;;
20084;SDS011;10202;48.474;9.138;2022-11-15T04:32:50;5.03;;;2.80;;
20084;SDS011;10202;48.474;9.138;2022-11-15T04:35:34;7.03;;;3.05;;
20084;SDS011;10202;48.474;9.138;2022-11-15T04:38:20;8.05;;;2.90;;
20084;SDS011;10202;48.474;9.138;2022-11-15T04:41:07;4.97;;;3.28;;
20084;SDS011;10202;48.474;9.138;2022-11-15T04:43:51;4.00;;;3.30;;
20084;SDS011;10202;48.474;9.138;2022-11-15T04:46:40;5.75;;;3.22;;
20084;SDS011;10202;48.474;9.138;2022-11-15T04:49:24;4.18;;;2.83;;
20084;SDS011;10202;48.474;9.138;2022-11-15T04:52:10;4.68;;;3.33;;
20084;SDS011;10202;48.474;9.138;2022-11-15T04:54:57;5.18;;;3.45;;
20084;SDS011;10202;48.474;9.138;2022-11-15T04:57:41;3.45;;;2.65;;
20084;SDS011;10202;48.474;9.138;2022-11-15T05:00:26;5.65;;;2.72;;
20084;SDS011;10202;48.474;9.138;2022-11-15T05:03:10;5.07;;;3.10;;
20084;SDS011;10202;48.474;9.138;2022-11-15T05:06:13;4.78;;;2.92;;
20084;SDS011;10202;48.474;9.138;2022-11-15T05:08:57;5.03;;;2.90;;
20084;SDS011;10202;48.474;9.138;2022-11-15T05:11:44;6.90;;;3.25;;
20084;SDS011;10202;48.474;9.138;2022-11-15T05:14:28;6.38;;;3.10;;
20084;SDS011;10202;48.474;9.138;2022-11-15T05:17:14;4.55;;;3.10;;
20084;SDS011;10202;48.474;9.138;2022-11-15T05:20:01;3.33;;;2.55;;
20084;SDS011;10202;48.474;9.138;2022-11-15T05:22:48;4.90;;;2.92;;
20084;SDS011;10202;48.474;9.138;2022-11-15T05:25:35;4.70;;;2.72;;
20084;SDS011;10202;48.474;9.138;2022-11-15T05:28:22;4.95;;;3.08;;
20084;SDS011;10202;48.474;9.138;2022-11-15T05:31:10;6.50;;;3.95;;
20084;SDS011;10202;48.474;9.138;2022-11-15T05:33:56;6.70;;;3.60;;
20084;SDS011;10202;48.474;9.138;2022-11-15T05:36:42;7.40;;;4.25;;
20084;SDS011;10202;48.474;9.138;2022-11-15T05:39:29;8.15;;;4.30;;
20084;SDS011;10202;48.474;9.138;2022-11-15T05:42:14;3.88;;;3.47;;
20084;SDS011;10202;48.474;9.138;2022-11-15T05:45:02;3.95;;;2.50;;
20084;SDS011;10202;48.474;9.138;2022-11-15T05:47:47;4.93;;;2.97;;
20084;SDS011;10202;48.474;9.138;2022-11-15T05:50:32;5.43;;;3.17;;
20084;SDS011;10202;48.474;9.138;2022-11-15T05:53:17;5.43;;;2.97;;
20084;SDS011;10202;48.474;9.138;2022-11-15T05:56:03;4.07;;;2.90;;
20084;SDS011;10202;48.474;9.138;2022-11-15T05:58:49;5.72;;;2.88;;
20084;SDS011;10202;48.474;9.138;2022-11-15T06:01:37;3.25;;;2.72;;
20084;SDS011;10202;48.474;9.138;2022-11-15T06:04:22;5.45;;;2.97;;
20084;SDS011;10202;48.474;9.138;2022-11-15T06:07:08;4.43;;;2.65;;
20084;SDS011;10202;48.474;9.138;2022-11-15T06:09:55;3.35;;;2.78;;
20084;SDS011;10202;48.474;9.138;2022-11-15T06:12:41;4.78;;;2.97;;
20084;SDS011;10202;48.474;9.138;2022-11-15T06:15:27;6.13;;;3.00;;
20084;SDS011;10202;48.474;9.138;2022-11-15T06:18:11;4.55;;;2.90;;
20084;SDS011;10202;48.474;9.138;2022-11-15T06:20:58;3.97;;;2.70;;
20084;SDS011;10202;48.474;9.138;2022-11-15T06:23:44;2.83;;;2.38;;
20084;SDS011;10202;48.474;9.138;2022-11-15T06:26:28;5.30;;;2.55;;
20084;SDS011;10202;48.474;9.138;2022-11-15T06:29:12;3.05;;;2.53;;
20084;SDS011;10202;48.474;9.138;2022-11-15T06:31:56;5.85;;;3.20;;
20084;SDS011;10202;48.474;9.138;2022-11-15T06:34:40;6.38;;;4.05;;
20084;SDS011;10202;48.474;9.138;2022-11-15T06:37:24;7.22;;;4.85;;
20084;SDS011;10202;48.474;9.138;2022-11-15T06:40:08;7.03;;;5.18;;
20084;SDS011;10202;48.474;9.138;2022-11-15T06:42:57;9.18;;;4.80;;
20084;SDS011;10202;48.474;9.138;2022-11-15T06:45:44;6.38;;;4.22;;
20084;SDS011;10202;48.474;9.138;2022-11-15T06:48:31;7.72;;;4.70;;
20084;SDS011;10202;48.474;9.138;2022-11-15T06:51:16;7.28;;;5.35;;
20084;SDS011;10202;48.474;9.138;2022-11-15T06:54:01;9.40;;;5.93;;
20084;SDS011;10202;48.474;9.138;2022-11-15T06:56:45;8.75;;;6.63;;
20084;SDS011;10202;48.474;9.138;2022-11-15T06:59:30;9.45;;;6.22;;
20084;SDS011;10202;48.474;9.138;2022-11-15T07:02:14;10.23;;;5.45;;
20084;SDS011;10202;48.474;9.138;2022-11-15T07:05:00;9.23;;;4.80;;
20084;SDS011;10202;48.474;9.138;2022-11-15T07:07:51;5.85;;;4.28;;
20084;SDS011;10202;48.474;9.138;2022-11-15T07:10:38;5.28;;;4.13;;
20084;SDS011;10202;48.474;9.138;2022-11-15T07:13:25;5.90;;;3.88;;
20084;SDS011;10202;48.474;9.138;2022-11-15T07:16:12;11.30;;;4.50;;
20084;SDS011;10202;48.474;9.138;2022-11-15T07:18:56;6.65;;;4.20;;
20084;SDS011;10202;48.474;9.138;2022-11-15T07:21:41;7.57;;;4.90;;
20084;SDS011;10202;48.474;9.138;2022-11-15T07:24:27;7.47;;;4.75;;
20084;SDS011;10202;48.474;9.138;2022-11-15T07:27:11;8.57;;;4.78;;
20084;SDS011;10202;48.474;9.138;2022-11-15T07:29:55;7.55;;;4.65;;
20084;SDS011;10202;48.474;9.138;2022-11-15T07:32:39;9.52;;;5.13;;
20084;SDS011;10202;48.474;9.138;2022-11-15T07:35:28;7.70;;;4.75;;
20084;SDS011;10202;48.474;9.138;2022-11-15T07:38:12;7.95;;;5.80;;
20084;SDS011;10202;48.474;9.138;2022-11-15T07:40:59;7.40;;;5.30;;
20084;SDS011;10202;48.474;9.138;2022-11-15T07:43:44;8.63;;;5.18;;
20084;SDS011;10202;48.474;9.138;2022-11-15T07:46:28;12.20;;;5.40;;
20084;SDS011;10202;48.474;9.138;2022-11-15T07:49:11;15.02;;;8.50;;
20084;SDS011;10202;48.474;9.138;2022-11-15T07:51:56;11.73;;;7.50;;
20084;SDS011;10202;48.474;9.138;2022-11-15T07:54:42;8.15;;;5.55;;
20084;SDS011;10202;48.474;9.138;2022-11-15T07:57:26;10.82;;;5.43;;
20084;SDS011;10202;48.474;9.138;2022-11-15T08:00:10;8.25;;;5.70;;
20084;SDS011;10202;48.474;9.138;2022-11-15T08:03:28;7.63;;;5.55;;
20084;SDS011;10202;48.474;9.138;2022-11-15T08:06:07;8.25;;;5.13;;
20084;SDS011;10202;48.474;9.138;2022-11-15T08:08:51;9.85;;;5.25;;
20084;SDS011;10202;48.474;9.138;2022-11-15T08:11:36;7.93;;;5.15;;
20084;SDS011;10202;48.474;9.138;2022-11-15T08:14:23;7.72;;;4.93;;
20084;SDS011;10202;48.474;9.138;2022-11-15T08:17:09;8.02;;;5.43;;
20084;SDS011;10202;48.474;9.138;2022-11-15T08:19:56;6.43;;;4.57;;
20084;SDS011;10202;48.474;9.138;2022-11-15T08:22:40;11.65;;;5.60;;
20084;SDS011;10202;48.474;9.138;2022-11-15T08:25:24;11.70;;;5.57;;
20084;SDS011;10202;48.474;9.138;2022-11-15T08:28:10;13.07;;;5.97;;
20084;SDS011;10202;48.474;9.138;2022-11-15T08:30:56;8.43;;;5.35;;
20084;SDS011;10202;48.474;9.138;2022-11-15T08:33:50;10.82;;;5.20;;
20084;SDS011;10202;48.474;9.138;2022-11-15T08:36:35;8.13;;;5.50;;
20084;SDS011;10202;48.474;9.138;2022-11-15T08:39:19;7.95;;;5.03;;
20084;SDS011;10202;48.474;9.138;2022-11-15T08:42:05;7.50;;;4.57;;
20084;SDS011;10202;48.474;9.138;2022-11-15T08:44:49;10.25;;;4.70;;
20084;SDS011;10202;48.474;9.138;2022-11-15T08:47:36;7.65;;;4.80;;
20084;SDS011;10202;48.474;9.138;2022-11-15T08:50:22;9.43;;;4.90;;
20084;SDS011;10202;48.474;9.138;2022-11-15T08:53:07;7.90;;;5.25;;
20084;SDS011;10202;48.474;9.138;2022-11-15T08:55:54;9.55;;;5.55;;
20084;SDS011;10202;48.474;9.138;2022-11-15T08:58:41;10.15;;;5.28;;
20084;SDS011;10202;48.474;9.138;2022-11-15T09:01:26;11.10;;;7.07;;
20084;SDS011;10202;48.474;9.138;2022-11-15T09:04:09;12.88;;;6.47;;
20084;SDS011;10202;48.474;9.138;2022-11-15T09:06:58;10.45;;;6.05;;
20084;SDS011;10202;48.474;9.138;2022-11-15T09:09:43;10.48;;;5.57;;
20084;SDS011;10202;48.474;9.138;2022-11-15T09:12:26;7.40;;;5.45;;
20084;SDS011;10202;48.474;9.138;2022-11-15T09:15:13;7.72;;;5.05;;
20084;SDS011;10202;48.474;9.138;2022-11-15T09:18:00;6.10;;;4.55;;
20084;SDS011;10202;48.474;9.138;2022-11-15T09:20:47;5.43;;;3.63;;
20084;SDS011;10202;48.474;9.138;2022-11-15T09:23:34;9.18;;;4.20;;
20084;SDS011;10202;48.474;9.138;2022-11-15T09:26:18;6.65;;;3.70;;
20084;SDS011;10202;48.474;9.138;2022-11-15T09:29:02;6.38;;;3.75;;
20084;SDS011;10202;48.474;9.138;2022-11-15T09:31:46;6.05;;;4.10;;
20084;SDS011;10202;48.474;9.138;2022-11-15T09:34:31;7.78;;;5.07;;
20084;SDS011;10202;48.474;9.138;2022-11-15T09:37:18;6.70;;;5.10;;
20084;SDS011;10202;48.474;9.138;2022-11-15T09:40:06;5.15;;;4.15;;
20084;SDS011;10202;48.474;9.138;2022-11-15T09:49:27;5.97;;;3.88;;
20084;SDS011;10202;48.474;9.138;2022-11-15T09:52:17;5.90;;;4.15;;
20084;SDS011;10202;48.474;9.138;2022-11-15T09:54:47;5.78;;;3.95;;
20084;SDS011;10202;48.474;9.138;2022-11-15T09:57:39;4.72;;;3.50;;
20084;SDS011;10202;48.474;9.138;2022-11-15T10:05:33;5.38;;;3.30;;
20084;SDS011;10202;48.474;9.138;2022-11-15T10:10:57;4.72;;;3.30;;
20084;SDS011;10202;48.474;9.138;2022-11-15T10:15:56;4.60;;;2.83;;
20084;SDS011;10202;48.474;9.138;2022-11-15T10:21:32;4.25;;;2.80;;
20084;SDS011;10202;48.474;9.138;2022-11-15T10:24:24;4.07;;;3.10;;
20084;SDS011;10202;48.474;9.138;2022-11-15T10:26:59;4.75;;;2.90;;
20084;SDS011;10202;48.474;9.138;2022-11-15T10:29:28;6.28;;;3.00;;
20084;SDS011;10202;48.474;9.138;2022-11-15T10:31:58;4.40;;;2.90;;
20084;SDS011;10202;48.474;9.138;2022-11-15T10:34:23;9.02;;;3.65;;
20084;SDS011;10202;48.474;9.138;2022-11-15T10:36:57;7.25;;;3.75;;
20084;SDS011;10202;48.474;9.138;2022-11-15T10:39:26;7.35;;;3.45;;
20084;SDS011;10202;48.474;9.138;2022-11-15T10:41:52;7.18;;;3.88;;
20084;SDS011;10202;48.474;9.138;2022-11-15T10:44:28;4.88;;;3.35;;
20084;SDS011;10202;48.474;9.138;2022-11-15T10:49:21;6.40;;;3.45;;
20084;SDS011;10202;48.474;9.138;2022-11-15T10:51:53;20.30;;;3.45;;
20084;SDS011;10202;48.474;9.138;2022-11-15T10:54:41;5.53;;;2.95;;
20084;SDS011;10202;48.474;9.138;2022-11-15T11:00:00;4.15;;;2.30;;
20084;SDS011;10202;48.474;9.138;2022-11-15T11:04:56;5.13;;;2.67;;
20084;SDS011;10202;48.474;9.138;2022-11-15T11:07:29;5.88;;;3.03;;
20084;SDS011;10202;48.474;9.138;2022-11-15T11:09:57;6.35;;;3.05;;
20084;SDS011;10202;48.474;9.138;2022-11-15T11:12:31;4.63;;;3.40;;
20084;SDS011;10202;48.474;9.138;2022-11-15T11:15:00;8.15;;;3.28;;
20084;SDS011;10202;48.474;9.138;2022-11-15T11:23:03;6.28;;;3.58;;
20084;SDS011;10202;48.474;9.138;2022-11-15T11:39:26;4.07;;;3.28;;
20084;SDS011;10202;48.474;9.138;2022-11-15T11:44:55;8.32;;;3.70;;
20084;SDS011;10202;48.474;9.138;2022-11-15T11:47:43;23.48;;;9.40;;
20084;SDS011;10202;48.474;9.138;2022-11-15T11:50:17;17.85;;;6.93;;
20084;SDS011;10202;48.474;9.138;2022-11-15T11:53:29;16.80;;;6.57;;
20084;SDS011;10202;48.474;9.138;2022-11-15T11:55:56;9.80;;;4.10;;
20084;SDS011;10202;48.474;9.138;2022-11-15T11:58:33;4.60;;;3.28;;
20084;SDS011;10202;48.474;9.138;2022-11-15T12:06:35;5.85;;;4.05;;
20084;SDS011;10202;48.474;9.138;2022-11-15T12:09:20;10.57;;;5.38;;
20084;SDS011;10202;48.474;9.138;2022-11-15T12:17:03;10.85;;;5.97;;
20084;SDS011;10202;48.474;9.138;2022-11-15T12:19:29;11.15;;;6.05;;
20084;SDS011;10202;48.474;9.138;2022-11-15T12:24:21;7.93;;;4.63;;
20084;SDS011;10202;48.474;9.138;2022-11-15T12:27:05;8.30;;;4.65;;
20084;SDS011;10202;48.474;9.138;2022-11-15T12:29:34;8.05;;;4.63;;
20084;SDS011;10202;48.474;9.138;2022-11-15T12:32:51;6.65;;;4.57;;
20084;SDS011;10202;48.474;9.138;2022-11-15T12:35:20;8.70;;;5.18;;
20084;SDS011;10202;48.474;9.138;2022-11-15T12:37:49;11.88;;;5.70;;
20084;SDS011;10202;48.474;9.138;2022-11-15T12:40:23;12.35;;;6.80;;
20084;SDS011;10202;48.474;9.138;2022-11-15T12:43:03;13.73;;;7.35;;
20084;SDS011;10202;48.474;9.138;2022-11-15T12:45:30;13.88;;;8.10;;
20084;SDS011;10202;48.474;9.138;2022-11-15T13:01:14;10.32;;;5.88;;
20084;SDS011;10202;48.474;9.138;2022-11-15T13:07:06;10.27;;;5.50;;
20084;SDS011;10202;48.474;9.138;2022-11-15T13:12:52;7.55;;;4.90;;
20084;SDS011;10202;48.474;9.138;2022-11-15T13:14:59;10.50;;;4.65;;
20084;SDS011;10202;48.474;9.138;2022-11-15T13:22:38;8.75;;;6.13;;
20084;SDS011;10202;48.474;9.138;2022-11-15T13:25:19;9.85;;;6.40;;
20084;SDS011;10202;48.474;9.138;2022-11-15T13:27:53;8.02;;;5.88;;
20084;SDS011;10202;48.474;9.138;2022-11-15T13:30:27;10.43;;;6.20;;
20084;SDS011;10202;48.474;9.138;2022-11-15T13:32:55;8.65;;;5.32;;
20084;SDS011;10202;48.474;9.138;2022-11-15T13:35:30;7.63;;;5.65;;
20084;SDS011;10202;48.474;9.138;2022-11-15T13:38:02;9.98;;;6.05;;
20084;SDS011;10202;48.474;9.138;2022-11-15T13:40:33;9.88;;;6.07;;
20084;SDS011;10202;48.474;9.138;2022-11-15T13:43:00;14.90;;;6.78;;
20084;SDS011;10202;48.474;9.138;2022-11-15T13:46:21;16.00;;;7.65;;
20084;SDS011;10202;48.474;9.138;2022-11-15T13:49:03;15.48;;;8.40;;
20084;SDS011;10202;48.474;9.138;2022-11-15T13:56:51;10.45;;;7.20;;
20084;SDS011;10202;48.474;9.138;2022-11-15T14:01:49;12.20;;;6.75;;
20084;SDS011;10202;48.474;9.138;2022-11-15T14:04:18;12.18;;;6.00;;
20084;SDS011;10202;48.474;9.138;2022-11-15T14:06:48;8.27;;;5.72;;
20084;SDS011;10202;48.474;9.138;2022-11-15T14:11:52;8.02;;;5.40;;
20084;SDS011;10202;48.474;9.138;2022-11-15T14:14:22;11.38;;;5.25;;
20084;SDS011;10202;48.474;9.138;2022-11-15T14:16:53;9.30;;;5.28;;
20084;SDS011;10202;48.474;9.138;2022-11-15T14:24:34;10.25;;;5.65;;
20084;SDS011;10202;48.474;9.138;2022-11-15T14:27:23;8.70;;;5.80;;
20084;SDS011;10202;48.474;9.138;2022-11-15T14:29:54;8.95;;;6.03;;
20084;SDS011;10202;48.474;9.138;2022-11-15T14:32:23;9.30;;;6.07;;
20084;SDS011;10202;48.474;9.138;2022-11-15T14:34:55;11.07;;;5.80;;
20084;SDS011;10202;48.474;9.138;2022-11-15T14:37:31;8.85;;;5.50;;
20084;SDS011;10202;48.474;9.138;2022-11-15T14:39:59;7.32;;;5.65;;
20084;SDS011;10202;48.474;9.138;2022-11-15T14:42:31;8.43;;;5.45;;
20084;SDS011;10202;48.474;9.138;2022-11-15T14:45:13;16.27;;;7.90;;
20084;SDS011;10202;48.474;9.138;2022-11-15T14:47:46;17.90;;;10.77;;
20084;SDS011;10202;48.474;9.138;2022-11-15T14:50:12;16.45;;;10.32;;
20084;SDS011;10202;48.474;9.138;2022-11-15T14:52:38;19.67;;;10.68;;
20084;SDS011;10202;48.474;9.138;2022-11-15T14:55:10;24.38;;;14.55;;
20084;SDS011;10202;48.474;9.138;2022-11-15T14:57:46;21.50;;;13.88;;
20084;SDS011;10202;48.474;9.138;2022-11-15T15:00:15;28.40;;;14.35;;
20084;SDS011;10202;48.474;9.138;2022-11-15T15:02:46;23.40;;;12.27;;
20084;SDS011;10202;48.474;9.138;2022-11-15T15:05:23;22.05;;;12.50;;
20084;SDS011;10202;48.474;9.138;2022-11-15T15:07:52;21.75;;;11.43;;
20084;SDS011;10202;48.474;9.138;2022-11-15T15:10:20;19.80;;;10.48;;
20084;SDS011;10202;48.474;9.138;2022-11-15T15:12:52;20.17;;;10.32;;
20084;SDS011;10202;48.474;9.138;2022-11-15T15:15:22;18.90;;;10.30;;
20084;SDS011;10202;48.474;9.138;2022-11-15T15:17:52;15.90;;;9.77;;
20084;SDS011;10202;48.474;9.138;2022-11-15T15:20:17;16.13;;;9.38;;
20084;SDS011;10202;48.474;9.138;2022-11-15T15:22:45;18.20;;;9.68;;
20084;SDS011;10202;48.474;9.138;2022-11-15T15:25:31;18.23;;;9.80;;
20084;SDS011;10202;48.474;9.138;2022-11-15T15:28:02;12.57;;;6.13;;
20084;SDS011;10202;48.474;9.138;2022-11-15T15:30:28;12.57;;;5.75;;
20084;SDS011;10202;48.474;9.138;2022-11-15T15:32:59;8.13;;;4.45;;
20084;SDS011;10202;48.474;9.138;2022-11-15T15:35:29;6.30;;;2.92;;
20084;SDS011;10202;48.474;9.138;2022-11-15T15:37:58;1.70;;;1.60;;
20084;SDS011;10202;48.474;9.138;2022-11-15T15:40:27;2.05;;;1.70;;
20084;SDS011;10202;48.474;9.138;2022-11-15T15:42:59;1.85;;;1.00;;
20084;SDS011;10202;48.474;9.138;2022-11-15T15:45:29;1.17;;;1.08;;
20084;SDS011;10202;48.474;9.138;2022-11-15T15:47:58;1.25;;;1.10;;
20084;SDS011;10202;48.474;9.138;2022-11-15T15:52:54;1.10;;;1.00;;
20084;SDS011;10202;48.474;9.138;2022-11-15T15:55:28;2.53;;;1.40;;
20084;SDS011;10202;48.474;9.138;2022-11-15T15:58:02;3.28;;;2.55;;
20084;SDS011;10202;48.474;9.138;2022-11-15T16:00:36;3.85;;;1.50;;
20084;SDS011;10202;48.474;9.138;2022-11-15T16:03:04;2.33;;;1.60;;
20084;SDS011;10202;48.474;9.138;2022-11-15T16:05:30;1.20;;;1.10;;
20084;SDS011;10202;48.474;9.138;2022-11-15T16:07:56;1.48;;;1.35;;
20084;SDS011;10202;48.474;9.138;2022-11-15T16:10:25;2.42;;;1.60;;
20084;SDS011;10202;48.474;9.138;2022-11-15T16:12:55;2.08;;;1.45;;
20084;SDS011;10202;48.474;9.138;2022-11-15T16:15:26;3.03;;;1.50;;
20084;SDS011;10202;48.474;9.138;2022-11-15T16:17:53;3.03;;;1.10;;
20084;SDS011;10202;48.474;9.138;2022-11-15T16:22:54;4.00;;;2.20;;
20084;SDS011;10202;48.474;9.138;2022-11-15T16:25:20;4.57;;;1.83;;
20084;SDS011;10202;48.474;9.138;2022-11-15T16:27:45;3.45;;;1.50;;
20084;SDS011;10202;48.474;9.138;2022-11-15T16:30:16;1.98;;;1.40;;
20084;SDS011;10202;48.474;9.138;2022-11-15T16:32:47;6.85;;;3.88;;
20084;SDS011;10202;48.474;9.138;2022-11-15T16:35:13;4.72;;;2.78;;
20084;SDS011;10202;48.474;9.138;2022-11-15T16:37:40;4.68;;;2.20;;
20084;SDS011;10202;48.474;9.138;2022-11-15T16:42:38;2.97;;;1.60;;
20084;SDS011;10202;48.474;9.138;2022-11-15T16:45:08;1.77;;;1.65;;
20084;SDS011;10202;48.474;9.138;2022-11-15T16:47:39;3.22;;;1.40;;
20084;SDS011;10202;48.474;9.138;2022-11-15T16:50:27;3.28;;;1.95;;
20084;SDS011;10202;48.474;9.138;2022-11-15T16:52:57;2.38;;;1.65;;
20084;SDS011;10202;48.474;9.138;2022-11-15T16:55:28;1.80;;;1.60;;
20084;SDS011;10202;48.474;9.138;2022-11-15T16:57:57;3.35;;;2.00;;
20084;SDS011;10202;48.474;9.138;2022-11-15T17:00:22;3.92;;;1.73;;
20084;SDS011;10202;48.474;9.138;2022-11-15T17:02:49;2.75;;;2.10;;
20084;SDS011;10202;48.474;9.138;2022-11-15T17:05:15;2.58;;;2.03;;
20084;SDS011;10202;48.474;9.138;2022-11-15T17:07:42;5.18;;;3.40;;
20084;SDS011;10202;48.474;9.138;2022-11-15T17:10:15;9.82;;;4.68;;
20084;SDS011;10202;48.474;9.138;2022-11-15T17:12:42;9.93;;;6.18;;
20084;SDS011;10202;48.474;9.138;2022-11-15T17:15:11;6.18;;;4.25;;
20084;SDS011;10202;48.474;9.138;2022-11-15T17:17:38;7.28;;;3.85;;
20084;SDS011;10202;48.474;9.138;2022-11-15T17:20:05;4.20;;;3.17;;
20084;SDS011;10202;48.474;9.138;2022-11-15T17:22:37;6.88;;;4.20;;
20084;SDS011;10202;48.474;9.138;2022-11-15T17:25:05;6.13;;;4.30;;
20084;SDS011;10202;48.474;9.138;2022-11-15T17:27:34;4.78;;;3.15;;
20084;SDS011;10202;48.474;9.138;2022-11-15T17:30:08;7.25;;;5.13;;
20084;SDS011;10202;48.474;9.138;2022-11-15T17:32:35;9.65;;;4.00;;
20084;SDS011;10202;48.474;9.138;2022-11-15T17:35:02;11.18;;;6.85;;
20084;SDS011;10202;48.474;9.138;2022-11-15T17:37:31;24.92;;;13.10;;
20084;SDS011;10202;48.474;9.138;2022-11-15T17:40:01;20.63;;;13.27;;
20084;SDS011;10202;48.474;9.138;2022-11-15T17:42:30;21.70;;;13.60;;
20084;SDS011;10202;48.474;9.138;2022-11-15T17:45:04;9.05;;;7.30;;
20084;SDS011;10202;48.474;9.138;2022-11-15T17:47:31;9.40;;;7.75;;
20084;SDS011;10202;48.474;9.138;2022-11-15T17:50:00;7.13;;;5.28;;
20084;SDS011;10202;48.474;9.138;2022-11-15T17:52:29;7.10;;;4.63;;
20084;SDS011;10202;48.474;9.138;2022-11-15T17:54:55;9.52;;;4.55;;
20084;SDS011;10202;48.474;9.138;2022-11-15T17:57:22;34.47;;;20.45;;
20084;SDS011;10202;48.474;9.138;2022-11-15T17:59:49;5.40;;;4.35;;
20084;SDS011;10202;48.474;9.138;2022-11-15T18:02:15;8.95;;;4.80;;
20084;SDS011;10202;48.474;9.138;2022-11-15T18:04:43;10.88;;;5.03;;
20084;SDS011;10202;48.474;9.138;2022-11-15T18:07:11;10.85;;;5.45;;
20084;SDS011;10202;48.474;9.138;2022-11-15T18:09:43;7.40;;;5.15;;
20084;SDS011;10202;48.474;9.138;2022-11-15T18:12:14;5.50;;;3.78;;
20084;SDS011;10202;48.474;9.138;2022-11-15T18:14:40;7.35;;;4.55;;
20084;SDS011;10202;48.474;9.138;2022-11-15T18:17:05;7.75;;;5.18;;
20084;SDS011;10202;48.474;9.138;2022-11-15T18:19:31;6.88;;;5.40;;
20084;SDS011;10202;48.474;9.138;2022-11-15T18:21:56;6.63;;;5.13;;
20084;SDS011;10202;48.474;9.138;2022-11-15T18:27:01;14.32;;;9.18;;
20084;SDS011;10202;48.474;9.138;2022-11-15T18:29:28;17.92;;;10.40;;
20084;SDS011;10202;48.474;9.138;2022-11-15T18:31:53;16.42;;;9.98;;